Time;durP1;ratioP1;P1;durP2;ratioP2;P2;SDS_P1;SDS_P2;PMS_P1;PMS_P2;Temp;Humidity;BMP_temperature;BMP_pressure;BME280_temperature;BME280_humidity;BME280_pressure;Samples;Min_cycle;Max_cycle;Signal;HPM_P1;HPM_P2
2021/12/05 00:16:56;;;;;;;;;0.00;0.00;;;;;8.71;59.96;99817.63;2074524;28;47468;-60
2021/12/05 00:21:35;;;;;;;;;1.00;1.00;;;;;8.78;60.27;99790.09;2073571;28;47240;-54
2021/12/05 00:22:36;;;;;;;;;0.75;0.75;;;;;8.78;60.23;99792.75;2071518;28;46934;-54
2021/12/05 00:23:45;;;;;;;;;0.00;0.00;;;;;8.77;60.08;99784.88;2071105;28;47824;-54
2021/12/05 00:24:49;;;;;;;;;0.75;0.25;;;;;8.76;60.01;99791.03;2078505;28;47797;-61
2021/12/05 00:25:53;;;;;;;;;1.75;1.75;;;;;8.76;59.95;99783.97;2076501;28;46892;-55
2021/12/05 00:27:04;;;;;;;;;2.00;0.00;;;;;8.76;60.16;99785.75;2079762;28;47393;-54
2021/12/05 00:34:06;;;;;;;;;1.00;1.00;;;;;8.73;60.13;99785.84;2078376;28;47512;-56
2021/12/05 00:39:35;;;;;;;;;0.00;0.00;;;;;8.70;60.41;99776.22;2054364;28;47193;-54
2021/12/05 00:43:00;;;;;;;;;0.75;0.75;;;;;8.69;60.28;99773.63;2076750;28;47553;-55
2021/12/05 00:59:08;;;;;;;;;0.00;0.00;;;;;8.68;60.44;99772.75;2069681;28;47203;-54
2021/12/05 01:01:44;;;;;;;;;0.00;0.00;;;;;8.67;60.43;99773.66;2073181;28;46161;-57
2021/12/05 01:08:12;;;;;;;;;1.00;1.00;;;;;8.73;60.63;99764.69;2051863;28;47285;-55
2021/12/05 01:09:29;;;;;;;;;0.00;0.00;;;;;8.76;60.41;99769.88;2077378;28;47352;-53
2021/12/05 01:14:31;;;;;;;;;0.00;0.00;;;;;8.80;60.47;99764.47;2077338;28;46410;-55
2021/12/05 01:15:32;;;;;;;;;0.25;0.25;;;;;8.81;60.37;99763.56;2076441;28;47317;-54
2021/12/05 01:16:34;;;;;;;;;0.00;0.00;;;;;8.82;60.27;99757.34;2071682;28;45981;-53
2021/12/05 01:17:53;;;;;;;;;0.00;0.00;;;;;8.83;60.23;99758.22;2078808;28;47046;-53
2021/12/05 01:18:54;;;;;;;;;0.00;0.00;;;;;8.84;60.43;99758.16;2077593;28;47467;-53
2021/12/05 01:19:56;;;;;;;;;0.00;0.00;;;;;8.85;60.40;99753.72;2079338;28;47560;-51
2021/12/05 01:21:04;;;;;;;;;1.00;0.00;;;;;8.85;60.31;99756.38;2079839;28;47768;-52
2021/12/05 01:22:11;;;;;;;;;1.00;1.00;;;;;8.85;60.17;99749.31;2078553;28;46631;-56
2021/12/05 01:25:43;;;;;;;;;1.00;1.00;;;;;8.87;60.21;99751.91;2075089;28;47702;-54
2021/12/05 01:27:54;;;;;;;;;0.00;0.00;;;;;8.85;60.17;99746.66;2078751;28;46957;-53
2021/12/05 01:30:03;;;;;;;;;0.25;0.25;;;;;8.85;60.17;99745.78;2079004;28;46330;-52
2021/12/05 01:33:36;;;;;;;;;0.50;0.00;;;;;8.79;59.97;99743.34;2078597;28;48510;-56
2021/12/05 01:38:16;;;;;;;;;0.75;0.25;;;;;8.71;60.48;99735.63;2079141;28;47603;-54
2021/12/05 01:40:48;;;;;;;;;0.00;0.00;;;;;8.68;60.31;99737.50;2073601;28;47779;-55
2021/12/05 01:57:13;;;;;;;;;0.00;0.00;;;;;8.62;60.14;99740.31;2059035;28;47078;-53
2021/12/05 02:01:02;;;;;;;;;0.00;0.00;;;;;8.59;60.27;99730.69;2079520;28;47451;-56
2021/12/05 02:02:34;;;;;;;;;0.00;0.00;;;;;8.55;60.29;99727.28;2078191;28;46657;-62
2021/12/05 02:30:04;;;;;;;;;0.75;0.75;;;;;8.33;60.63;99722.63;2076151;28;47764;-53
2021/12/05 02:38:01;;;;;;;;;0.00;0.00;;;;;8.27;60.81;99726.31;2053332;28;48246;-54
2021/12/05 02:41:16;;;;;;;;;0.00;0.00;;;;;8.27;61.06;99721.03;2079252;28;47902;-52
2021/12/05 02:43:31;;;;;;;;;0.50;0.50;;;;;8.26;60.96;99714.88;2073554;28;47227;-52
2021/12/05 02:44:32;;;;;;;;;0.00;0.00;;;;;8.26;60.73;99722.81;2079158;28;47460;-52
2021/12/05 02:45:35;;;;;;;;;0.00;0.00;;;;;8.25;60.97;99717.53;2078576;28;48999;-56
2021/12/05 02:46:36;;;;;;;;;0.00;0.00;;;;;8.26;60.94;99711.38;2077670;28;47527;-55
2021/12/05 02:47:38;;;;;;;;;0.00;0.00;;;;;8.26;60.88;99706.09;2075581;28;47621;-53
2021/12/05 02:48:40;;;;;;;;;0.00;0.00;;;;;8.25;60.88;99706.97;2079121;28;47828;-53
2021/12/05 02:49:43;;;;;;;;;0.00;0.00;;;;;8.26;61.03;99708.72;2077572;28;47568;-56
2021/12/05 02:50:44;;;;;;;;;0.00;0.00;;;;;8.25;60.85;99715.75;2078634;28;46527;-56
2021/12/05 02:51:56;;;;;;;;;0.00;0.00;;;;;8.24;60.84;99702.59;2078013;28;47220;-57
2021/12/05 02:53:03;;;;;;;;;0.00;0.00;;;;;8.24;61.04;99700.81;2078456;28;45486;-54
2021/12/05 02:54:14;;;;;;;;;0.00;0.00;;;;;8.26;61.16;99700.81;2078829;28;45355;-57
2021/12/05 02:55:30;;;;;;;;;1.50;1.00;;;;;8.24;61.21;99698.19;2073405;28;47445;-53
2021/12/05 02:56:37;;;;;;;;;0.00;0.00;;;;;8.25;61.08;99704.31;2078284;28;47963;-53
2021/12/05 02:58:48;;;;;;;;;0.00;0.00;;;;;8.25;60.98;99688.47;2077908;28;47721;-55
2021/12/05 02:59:54;;;;;;;;;0.00;0.00;;;;;8.24;60.95;99687.59;2078954;28;47712;-54
2021/12/05 03:02:07;;;;;;;;;0.00;0.00;;;;;8.24;60.81;99694.66;2075176;28;46685;-53
2021/12/05 03:03:18;;;;;;;;;0.00;0.00;;;;;8.24;61.15;99694.66;2078177;28;48047;-55
2021/12/05 03:04:19;;;;;;;;;0.50;0.50;;;;;8.22;61.20;99697.34;2077021;28;47868;-53
2021/12/05 03:05:20;;;;;;;;;0.75;0.00;;;;;8.24;61.12;99699.94;2077771;28;47079;-52
2021/12/05 03:06:26;;;;;;;;;0.00;0.00;;;;;8.23;61.18;99699.09;2078523;28;47608;-54
2021/12/05 03:07:37;;;;;;;;;0.50;0.00;;;;;8.23;61.22;99699.09;2077914;28;45115;-53
2021/12/05 03:08:38;;;;;;;;;0.00;0.00;;;;;8.24;60.99;99703.47;2075412;28;47357;-55
2021/12/05 03:09:41;;;;;;;;;0.00;0.00;;;;;8.25;61.15;99696.41;2077662;28;47358;-54
2021/12/05 03:10:43;;;;;;;;;0.00;0.00;;;;;8.24;61.16;99700.81;2078092;28;47272;-53
2021/12/05 03:11:45;;;;;;;;;0.25;0.25;;;;;8.24;61.11;99695.53;2077620;28;47992;-53
2021/12/05 03:12:46;;;;;;;;;0.75;0.75;;;;;8.24;60.88;99698.19;2078570;28;47302;-53
2021/12/05 03:13:47;;;;;;;;;0.00;0.00;;;;;8.24;60.85;99692.88;2078013;28;47896;-51
2021/12/05 03:14:50;;;;;;;;;1.00;1.00;;;;;8.24;61.12;99681.44;2079292;28;47554;-54
2021/12/05 03:15:51;;;;;;;;;1.00;0.25;;;;;8.22;61.05;99684.16;2075989;28;46473;-51
2021/12/05 03:16:51;;;;;;;;;0.00;0.00;;;;;8.22;60.80;99683.28;2077669;28;46577;-53
2021/12/05 03:17:53;;;;;;;;;0.00;0.00;;;;;8.22;61.01;99693.84;2078205;28;46169;-53
2021/12/05 03:18:54;;;;;;;;;0.00;0.00;;;;;8.20;61.02;99688.59;2077482;28;47000;-54
2021/12/05 03:19:54;;;;;;;;;0.67;0.00;;;;;8.19;61.04;99692.16;2078648;28;47742;-52
2021/12/05 03:20:55;;;;;;;;;0.00;0.00;;;;;8.19;61.04;99691.31;2078281;28;47101;-53
2021/12/05 03:21:55;;;;;;;;;0.00;0.00;;;;;8.16;60.93;99686.97;2076580;28;47319;-52
2021/12/05 03:22:56;;;;;;;;;1.00;1.00;;;;;8.17;61.12;99690.47;2079023;28;46730;-50
2021/12/05 03:23:57;;;;;;;;;1.00;1.00;;;;;8.16;61.23;99691.41;2077778;28;47734;-54
2021/12/05 03:24:58;;;;;;;;;0.00;0.00;;;;;8.15;60.87;99692.31;2079051;28;46873;-54
2021/12/05 03:25:58;;;;;;;;;0.00;0.00;;;;;8.14;61.06;99687.94;2078721;28;45297;-54
2021/12/05 03:26:59;;;;;;;;;0.00;0.00;;;;;8.12;61.21;99687.94;2075509;28;47346;-55
2021/12/05 03:28:01;;;;;;;;;0.00;0.00;;;;;8.12;61.11;99679.16;2078557;28;47713;-56
2021/12/05 03:29:05;;;;;;;;;0.00;0.00;;;;;8.12;61.08;99697.66;2069993;28;47168;-50
2021/12/05 03:30:07;;;;;;;;;0.25;0.00;;;;;8.10;61.06;99689.78;2065181;28;46667;-52
2021/12/05 03:31:09;;;;;;;;;0.00;0.00;;;;;8.09;61.12;99688.03;2077709;28;46999;-53
2021/12/05 03:32:09;;;;;;;;;0.25;0.00;;;;;8.09;61.38;99685.41;2078311;28;47904;-55
2021/12/05 03:33:10;;;;;;;;;0.33;0.00;;;;;8.10;61.21;99686.25;2076940;28;47461;-55
2021/12/05 03:34:13;;;;;;;;;1.00;1.00;;;;;8.12;61.32;99681.81;2077711;28;47548;-56
2021/12/05 03:35:14;;;;;;;;;0.25;0.25;;;;;8.14;61.48;99690.56;2074071;28;47421;-52
2021/12/05 03:36:15;;;;;;;;;0.00;0.00;;;;;8.16;61.50;99694.03;2078701;28;47267;-62
2021/12/05 03:37:16;;;;;;;;;0.00;0.00;;;;;8.17;61.45;99687.84;2078630;28;47600;-56
2021/12/05 03:38:16;;;;;;;;;1.00;1.00;;;;;8.19;61.22;99688.66;2077396;28;47102;-55
2021/12/05 03:39:17;;;;;;;;;1.00;1.00;;;;;8.18;61.22;99673.72;2078120;28;45935;-56
2021/12/05 03:40:22;;;;;;;;;0.00;0.00;;;;;8.18;61.11;99673.72;2072061;28;47077;-53
2021/12/05 03:41:23;;;;;;;;;0.00;0.00;;;;;8.15;61.04;99672.03;2075952;28;46537;-53
2021/12/05 03:42:24;;;;;;;;;0.00;0.00;;;;;8.16;60.80;99668.47;2072783;28;46648;-54
2021/12/05 03:43:24;;;;;;;;;0.00;0.00;;;;;8.16;61.22;99676.41;2077693;28;46152;-52
2021/12/05 03:44:28;;;;;;;;;1.00;0.00;;;;;8.16;61.33;99675.53;2077152;28;47208;-52
2021/12/05 03:45:36;;;;;;;;;1.00;0.00;;;;;8.15;60.92;99668.53;2072366;28;48008;-54
2021/12/05 03:46:37;;;;;;;;;0.00;0.00;;;;;8.15;61.04;99668.53;2071567;28;47208;-59
2021/12/05 03:47:38;;;;;;;;;0.25;0.00;;;;;8.15;60.91;99671.16;2074120;28;45053;-52
2021/12/05 03:48:44;;;;;;;;;0.00;0.00;;;;;8.15;61.25;99660.59;2077797;28;47145;-52
2021/12/05 03:49:44;;;;;;;;;1.00;0.00;;;;;8.14;61.06;99667.66;2075817;28;47188;-54
2021/12/05 03:50:47;;;;;;;;;0.00;0.00;;;;;8.13;61.22;99662.38;2076039;28;47739;-52
2021/12/05 03:51:56;;;;;;;;;0.50;0.00;;;;;8.13;61.09;99665.03;2078457;28;47813;-52
2021/12/05 03:52:57;;;;;;;;;0.00;0.00;;;;;8.13;61.05;99665.94;2077457;28;48380;-52
2021/12/05 03:53:58;;;;;;;;;0.00;0.00;;;;;8.14;61.21;99669.44;2078472;28;47503;-54
2021/12/05 03:54:59;;;;;;;;;0.00;0.00;;;;;8.14;61.33;99666.78;2075163;28;47144;-56
2021/12/05 03:56:04;;;;;;;;;0.00;0.00;;;;;8.15;61.27;99663.25;2076192;28;46655;-55
2021/12/05 03:57:05;;;;;;;;;0.00;0.00;;;;;8.15;61.18;99657.94;2080297;28;47390;-53
2021/12/05 03:58:06;;;;;;;;;0.00;0.00;;;;;8.15;61.13;99658.81;2076541;28;47729;-56
2021/12/05 03:59:09;;;;;;;;;0.25;0.25;;;;;8.17;61.04;99661.41;2079791;28;48025;-54
2021/12/05 04:00:23;;;;;;;;;0.00;0.00;;;;;8.18;61.09;99649.94;2078764;28;47161;-56
2021/12/05 04:01:27;;;;;;;;;0.00;0.00;;;;;8.19;60.93;99657.81;2079869;28;47676;-54
2021/12/05 04:02:27;;;;;;;;;0.00;0.00;;;;;8.19;60.64;99655.16;2079413;28;47643;-60
2021/12/05 04:03:30;;;;;;;;;0.00;0.00;;;;;8.19;60.86;99651.66;2078857;28;46850;-55
2021/12/05 04:04:31;;;;;;;;;0.25;0.25;;;;;8.19;60.76;99651.66;2079030;28;45709;-51
2021/12/05 04:05:34;;;;;;;;;0.25;0.00;;;;;8.19;60.83;99649.88;2078894;28;47085;-56
2021/12/05 04:06:35;;;;;;;;;0.00;0.00;;;;;8.20;60.98;99661.31;2078034;28;46720;-52
2021/12/05 04:07:35;;;;;;;;;0.00;0.00;;;;;8.20;60.90;99651.63;2079848;28;47818;-52
2021/12/05 04:08:39;;;;;;;;;0.00;0.00;;;;;8.20;60.99;99662.19;2079200;28;47997;-52
2021/12/05 04:09:39;;;;;;;;;0.00;0.00;;;;;8.20;60.89;99653.38;2078083;28;47373;-58
2021/12/05 04:10:44;;;;;;;;;0.00;0.00;;;;;8.19;60.72;99647.25;2078902;28;46738;-54
2021/12/05 04:11:56;;;;;;;;;0.00;0.00;;;;;8.18;60.84;99650.78;2077657;28;47096;-51
2021/12/05 04:12:57;;;;;;;;;0.00;0.00;;;;;8.17;60.82;99645.56;2077240;28;47845;-54
2021/12/05 04:13:57;;;;;;;;;0.00;0.00;;;;;8.16;60.47;99647.34;2078114;28;47300;-53
2021/12/05 04:14:58;;;;;;;;;0.00;0.00;;;;;8.16;60.64;99657.03;2079645;28;48101;-52
2021/12/05 04:16:01;;;;;;;;;0.00;0.00;;;;;8.16;60.79;99655.25;2075169;28;47359;-55
2021/12/05 04:17:05;;;;;;;;;0.00;0.00;;;;;8.16;60.68;99657.91;2071061;28;47046;-54
2021/12/05 04:18:06;;;;;;;;;0.00;0.00;;;;;8.14;60.67;99649.16;2072172;28;47219;-53
2021/12/05 04:19:07;;;;;;;;;0.33;0.33;;;;;8.15;60.76;99650.03;2075285;28;47643;-54
2021/12/05 04:20:11;;;;;;;;;0.00;0.00;;;;;8.13;60.56;99643.88;2080385;28;47769;-53
2021/12/05 04:21:13;;;;;;;;;0.00;0.00;;;;;8.14;60.70;99653.59;2071548;28;47338;-53
2021/12/05 04:22:14;;;;;;;;;0.00;0.00;;;;;8.13;60.61;99655.34;2075414;28;47655;-54
2021/12/05 04:23:15;;;;;;;;;0.00;0.00;;;;;8.12;60.54;99653.59;2079788;28;47184;-54
2021/12/05 04:24:15;;;;;;;;;0.00;0.00;;;;;8.11;60.69;99659.78;2079269;28;47360;-51
2021/12/05 04:25:18;;;;;;;;;0.00;0.00;;;;;8.10;60.50;99663.34;2073015;28;47729;-62
2021/12/05 04:26:19;;;;;;;;;0.00;0.00;;;;;8.09;60.54;99658.97;2079429;28;47691;-54
2021/12/05 04:27:19;;;;;;;;;0.00;0.00;;;;;8.08;60.68;99659.88;2077177;28;46727;-52
2021/12/05 04:28:22;;;;;;;;;0.00;0.00;;;;;8.07;60.49;99660.81;2079109;28;47494;-53
2021/12/05 04:29:23;;;;;;;;;0.00;0.00;;;;;8.06;60.45;99664.34;2078710;28;47500;-52
2021/12/05 04:30:25;;;;;;;;;0.00;0.00;;;;;8.05;60.24;99657.34;2078366;28;47664;-54
2021/12/05 04:31:26;;;;;;;;;0.00;0.00;;;;;8.05;60.54;99661.75;2079162;28;47724;-54
2021/12/05 04:32:26;;;;;;;;;0.00;0.00;;;;;8.06;60.52;99652.91;2079837;28;47594;-54
2021/12/05 04:33:27;;;;;;;;;0.00;0.00;;;;;8.05;60.65;99652.06;2079051;28;46088;-54
2021/12/05 04:34:27;;;;;;;;;1.00;0.00;;;;;8.06;60.51;99651.16;2077861;28;47411;-54
2021/12/05 04:35:28;;;;;;;;;0.00;0.00;;;;;8.05;60.32;99649.41;2074128;28;47529;-54
2021/12/05 04:36:29;;;;;;;;;0.00;0.00;;;;;8.05;60.38;99656.47;2080022;28;47037;-53
2021/12/05 04:37:29;;;;;;;;;1.00;0.00;;;;;8.04;60.52;99647.69;2079275;28;47522;-53
2021/12/05 04:38:30;;;;;;;;;0.00;0.00;;;;;8.05;60.51;99645.91;2077261;28;47263;-53
2021/12/05 04:39:31;;;;;;;;;0.00;0.00;;;;;8.04;60.37;99645.03;2078028;28;46718;-52
2021/12/05 04:40:33;;;;;;;;;0.00;0.00;;;;;8.04;60.42;99655.63;2073411;28;47121;-55
2021/12/05 04:41:34;;;;;;;;;0.00;0.00;;;;;8.04;60.42;99650.31;2078838;28;47706;-54
2021/12/05 04:42:35;;;;;;;;;0.00;0.00;;;;;8.04;60.37;99646.81;2079921;28;47772;-58
2021/12/05 04:43:38;;;;;;;;;0.00;0.00;;;;;8.03;60.46;99648.59;2079139;28;46784;-54
2021/12/05 04:44:39;;;;;;;;;0.00;0.00;;;;;8.03;60.23;99645.09;2075798;28;47017;-55
2021/12/05 04:45:40;;;;;;;;;0.00;0.00;;;;;8.00;60.05;99645.16;2074987;28;47349;-51
2021/12/05 04:46:41;;;;;;;;;0.00;0.00;;;;;7.98;60.23;99647.84;2077403;28;47677;-56
2021/12/05 04:47:43;;;;;;;;;1.00;1.00;;;;;7.96;60.24;99641.75;2074864;28;47003;-52
2021/12/05 04:48:47;;;;;;;;;0.00;0.00;;;;;7.95;60.48;99645.28;2079246;28;47297;-52
2021/12/05 04:49:48;;;;;;;;;0.00;0.00;;;;;7.94;60.51;99640.91;2079093;28;46677;-53
2021/12/05 04:50:49;;;;;;;;;0.00;0.00;;;;;7.91;60.32;99639.25;2078610;28;47270;-52
2021/12/05 04:51:50;;;;;;;;;0.00;0.00;;;;;7.89;60.36;99646.34;2079037;28;47463;-54
2021/12/05 04:52:51;;;;;;;;;0.00;0.00;;;;;7.89;60.63;99648.13;2079599;28;47117;-54
2021/12/05 04:53:53;;;;;;;;;0.00;0.00;;;;;7.87;60.37;99648.13;2079056;28;47237;-54
2021/12/05 04:54:53;;;;;;;;;0.00;0.00;;;;;7.87;60.39;99644.63;2078724;28;47251;-54
2021/12/05 04:55:56;;;;;;;;;0.00;0.00;;;;;7.86;60.69;99645.53;2078580;28;47656;-53
2021/12/05 04:56:56;;;;;;;;;0.00;0.00;;;;;7.85;60.50;99644.69;2070134;28;47996;-55
2021/12/05 04:57:58;;;;;;;;;0.00;0.00;;;;;7.86;60.64;99642.91;2070232;28;47484;-51
2021/12/05 04:59:00;;;;;;;;;0.00;0.00;;;;;7.84;60.56;99640.31;2079260;28;48158;-53
2021/12/05 05:00:03;;;;;;;;;0.00;0.00;;;;;7.82;60.46;99638.63;2078714;28;47476;-53
2021/12/05 05:01:06;;;;;;;;;0.00;0.00;;;;;7.82;60.49;99635.97;2065871;28;47555;-54
2021/12/05 05:02:07;;;;;;;;;0.00;0.00;;;;;7.81;60.82;99639.53;2068803;28;48270;-54
2021/12/05 05:03:09;;;;;;;;;0.00;0.00;;;;;7.81;60.73;99645.69;2076331;28;47344;-53
2021/12/05 05:05:26;;;;;;;;;0.00;0.00;;;;;7.81;60.79;99640.41;2078463;28;47396;-55
2021/12/05 05:06:26;;;;;;;;;0.00;0.00;;;;;7.80;60.75;99637.81;2079685;28;47493;-54
2021/12/05 05:07:29;;;;;;;;;0.00;0.00;;;;;7.79;60.70;99638.72;2074152;28;47710;-53
2021/12/05 05:08:31;;;;;;;;;0.50;0.50;;;;;7.78;60.58;99629.06;2078432;28;47539;-55
2021/12/05 05:09:32;;;;;;;;;0.00;0.00;;;;;7.77;60.73;99633.47;2079709;28;47724;-54
2021/12/05 05:10:35;;;;;;;;;0.00;0.00;;;;;7.78;60.74;99631.69;2079398;28;47696;-55
2021/12/05 05:11:37;;;;;;;;;1.00;0.00;;;;;7.79;60.79;99630.78;2079698;28;47109;-53
2021/12/05 05:12:38;;;;;;;;;0.00;0.00;;;;;7.79;60.64;99623.72;2072742;28;48339;-56
2021/12/05 05:13:40;;;;;;;;;0.50;0.00;;;;;7.80;60.98;99627.25;2061429;28;47371;-54
2021/12/05 05:14:41;;;;;;;;;0.00;0.00;;;;;7.79;60.82;99621.09;2065963;28;45533;-54
2021/12/05 05:15:42;;;;;;;;;0.00;0.00;;;;;7.80;60.91;99636.03;2072123;28;47024;-64
2021/12/05 05:16:44;;;;;;;;;0.00;0.00;;;;;7.80;60.98;99635.16;2057832;28;45401;-62
2021/12/05 05:17:47;;;;;;;;;0.00;0.00;;;;;7.81;60.98;99640.41;2055981;28;46029;-63
2021/12/05 05:18:52;;;;;;;;;0.00;0.00;;;;;7.80;61.04;99641.31;2065881;28;47344;-56
2021/12/05 05:19:59;;;;;;;;;0.00;0.00;;;;;7.82;61.06;99635.97;2070317;28;48262;-55
2021/12/05 05:21:54;;;;;;;;;0.00;0.00;;;;;7.81;61.10;99637.75;2069190;28;45299;-54
2021/12/05 05:25:38;;;;;;;;;1.00;0.25;;;;;7.83;61.04;99630.66;2072847;28;45665;-53
2021/12/05 05:40:22;;;;;;;;;0.00;0.00;;;;;7.88;60.89;99641.97;2067092;28;48284;-55
2021/12/05 05:43:10;;;;;;;;;0.00;0.00;;;;;7.88;60.95;99638.47;2078956;28;46431;-54
2021/12/05 05:46:21;;;;;;;;;0.00;0.00;;;;;7.91;60.95;99644.53;2070846;28;46518;-55
2021/12/05 05:48:39;;;;;;;;;1.00;0.00;;;;;7.94;61.15;99649.72;2075286;28;47216;-55
2021/12/05 05:50:53;;;;;;;;;0.00;0.00;;;;;7.97;61.04;99651.41;2075902;28;46441;-59
2021/12/05 05:51:54;;;;;;;;;1.00;1.00;;;;;7.99;60.94;99649.56;2075412;28;47211;-62
2021/12/05 05:52:55;;;;;;;;;0.00;0.00;;;;;7.99;60.80;99641.66;2066043;28;45944;-63
2021/12/05 05:53:56;;;;;;;;;0.00;0.00;;;;;8.01;61.06;99639.84;2073551;28;45350;-55
2021/12/05 05:54:59;;;;;;;;;0.00;0.00;;;;;8.03;61.01;99645.09;2067853;28;45893;-55
2021/12/05 05:56:00;;;;;;;;;0.00;0.00;;;;;8.03;60.81;99640.66;2070040;28;45559;-52
2021/12/05 05:57:11;;;;;;;;;1.00;0.00;;;;;8.03;60.93;99635.38;2062057;28;46831;-54
2021/12/05 05:58:15;;;;;;;;;0.00;0.00;;;;;8.04;60.85;99629.19;2062924;28;48133;-54
2021/12/05 06:00:32;;;;;;;;;0.00;0.00;;;;;8.06;60.92;99635.28;2070066;28;47211;-53
2021/12/05 06:03:56;;;;;;;;;0.00;0.00;;;;;8.09;61.03;99631.69;2075831;28;47039;-55
2021/12/05 06:04:57;;;;;;;;;0.00;0.00;;;;;8.10;61.04;99636.06;2072087;28;47043;-52
2021/12/05 06:06:09;;;;;;;;;0.00;0.00;;;;;8.09;61.02;99629.03;2069477;28;47513;-54
2021/12/05 06:07:11;;;;;;;;;2.75;0.00;;;;;8.09;61.02;99629.91;2064818;28;47449;-53
2021/12/05 06:08:12;;;;;;;;;0.00;0.00;;;;;8.10;61.14;99631.63;2067124;28;47209;-54
2021/12/05 06:09:13;;;;;;;;;0.00;0.00;;;;;8.11;61.07;99627.22;2072654;28;48350;-53
2021/12/05 06:10:20;;;;;;;;;0.00;0.00;;;;;8.12;61.12;99635.09;2072704;28;48022;-54
2021/12/05 06:11:20;;;;;;;;;0.00;0.00;;;;;8.13;61.22;99634.22;2067148;28;48581;-54
2021/12/05 06:12:20;;;;;;;;;0.00;0.00;;;;;8.14;61.09;99633.31;2067937;28;48203;-52
2021/12/05 06:13:21;;;;;;;;;0.00;0.00;;;;;8.15;61.05;99628.88;2071238;28;47171;-60
2021/12/05 06:14:22;;;;;;;;;0.67;0.00;;;;;8.16;61.20;99623.56;2072192;28;45425;-53
2021/12/05 06:15:25;;;;;;;;;0.25;0.00;;;;;8.16;61.32;99631.47;2074447;28;45301;-55
2021/12/05 06:16:25;;;;;;;;;0.00;0.00;;;;;8.18;61.32;99619.09;2077119;28;47872;-54
2021/12/05 06:17:26;;;;;;;;;1.00;0.00;;;;;8.19;61.18;99622.59;2074308;28;46600;-54
2021/12/05 06:18:26;;;;;;;;;0.00;0.00;;;;;8.19;61.10;99631.38;2076856;28;46861;-54
2021/12/05 06:19:27;;;;;;;;;0.00;0.00;;;;;8.20;61.07;99624.31;2078753;28;46009;-54
2021/12/05 06:20:29;;;;;;;;;0.75;0.75;;;;;8.21;61.06;99626.03;2078219;28;46818;-54
2021/12/05 06:21:30;;;;;;;;;0.50;0.00;;;;;8.20;60.98;99619.03;2077996;28;47139;-51
2021/12/05 06:22:30;;;;;;;;;0.00;0.00;;;;;8.21;60.86;99615.47;2075496;28;47124;-51
2021/12/05 06:23:31;;;;;;;;;0.00;0.00;;;;;8.22;61.07;99617.19;2068459;28;48486;-59
2021/12/05 06:24:32;;;;;;;;;0.00;0.00;;;;;8.22;61.14;99609.28;2071871;28;47183;-56
2021/12/05 06:25:36;;;;;;;;;0.00;0.00;;;;;8.21;61.07;99605.78;2068033;28;47487;-53
2021/12/05 06:26:37;;;;;;;;;0.75;0.00;;;;;8.21;60.97;99611.06;2066491;28;46871;-53
2021/12/05 06:27:38;;;;;;;;;0.00;0.00;;;;;8.23;61.00;99621.56;2067161;28;47214;-57
2021/12/05 06:28:41;;;;;;;;;0.00;0.00;;;;;8.22;60.98;99620.72;2066435;28;48504;-54
2021/12/05 06:29:50;;;;;;;;;1.00;0.00;;;;;8.23;60.86;99624.22;2067283;28;49002;-54
2021/12/05 06:30:59;;;;;;;;;1.00;0.00;;;;;8.23;60.84;99622.44;2067672;28;48121;-54
2021/12/05 06:32:31;;;;;;;;;0.00;0.00;;;;;8.24;61.12;99615.38;2065172;28;47944;-55
2021/12/05 06:40:17;;;;;;;;;0.50;0.00;;;;;8.23;60.97;99627.72;2069641;28;46099;-53
2021/12/05 06:43:01;;;;;;;;;0.00;0.00;;;;;8.25;60.97;99627.69;2056627;28;46885;-55
2021/12/05 06:46:41;;;;;;;;;0.00;0.00;;;;;8.22;60.92;99639.22;2070319;28;47155;-55
2021/12/05 06:47:42;;;;;;;;;0.00;0.00;;;;;8.23;61.04;99632.16;2073032;28;45551;-54
2021/12/05 06:48:43;;;;;;;;;0.00;0.00;;;;;8.22;61.06;99626.00;2072494;28;47288;-53
2021/12/05 06:49:44;;;;;;;;;1.25;0.00;;;;;8.23;61.06;99635.66;2076035;28;47336;-53
2021/12/05 06:50:45;;;;;;;;;0.00;0.00;;;;;8.24;61.13;99621.53;2074636;28;47575;-55
2021/12/05 06:51:48;;;;;;;;;0.00;0.00;;;;;8.24;61.06;99632.09;2077351;28;45245;-57
2021/12/05 06:52:49;;;;;;;;;0.00;0.00;;;;;8.24;60.69;99631.22;2079371;28;47448;-54
2021/12/05 06:53:51;;;;;;;;;0.00;0.00;;;;;8.25;61.15;99617.97;2078110;28;47656;-54
2021/12/05 06:54:51;;;;;;;;;0.00;0.00;;;;;8.27;61.01;99628.53;2076863;28;47287;-52
2021/12/05 06:55:52;;;;;;;;;1.00;1.00;;;;;8.28;61.06;99627.63;2078882;28;47415;-52
2021/12/05 06:56:52;;;;;;;;;1.00;1.00;;;;;8.29;61.08;99631.13;2076344;28;47459;-53
2021/12/05 06:57:53;;;;;;;;;0.33;0.33;;;;;8.30;60.92;99636.34;2076954;28;46788;-55
2021/12/05 06:58:54;;;;;;;;;0.00;0.00;;;;;8.31;60.92;99637.22;2077562;28;46846;-56
2021/12/05 06:59:55;;;;;;;;;0.00;0.00;;;;;8.32;61.03;99644.25;2074853;28;47125;-53
2021/12/05 07:00:55;;;;;;;;;0.00;0.00;;;;;8.32;60.89;99639.81;2079387;28;47616;-53
2021/12/05 07:01:56;;;;;;;;;0.00;0.00;;;;;8.32;60.93;99642.47;2074955;28;47461;-53
2021/12/05 07:02:57;;;;;;;;;0.00;0.00;;;;;8.34;60.93;99647.69;2078821;28;47371;-57
2021/12/05 07:04:04;;;;;;;;;1.00;0.00;;;;;8.34;60.92;99648.59;2077932;28;47783;-51
2021/12/05 07:05:35;;;;;;;;;0.50;0.00;;;;;8.36;60.97;99648.53;2072450;28;46913;-54
2021/12/05 07:06:39;;;;;;;;;0.00;0.00;;;;;8.37;60.99;99651.13;2070874;28;47928;-54
2021/12/05 07:07:42;;;;;;;;;0.00;0.00;;;;;8.36;61.06;99644.13;2076315;28;47407;-49
2021/12/05 07:08:43;;;;;;;;;0.00;0.00;;;;;8.37;61.37;99642.34;2072784;28;47267;-59
2021/12/05 07:09:44;;;;;;;;;0.00;0.00;;;;;8.37;61.35;99650.28;2074869;28;47391;-59
2021/12/05 07:10:58;;;;;;;;;1.00;1.00;;;;;8.37;61.47;99645.84;2076292;28;46668;-55
2021/12/05 07:13:40;;;;;;;;;1.00;1.00;;;;;8.40;61.54;99639.63;2073008;28;48208;-52
2021/12/05 07:15:57;;;;;;;;;0.00;0.00;;;;;8.38;61.48;99644.94;2069611;28;47847;-55
2021/12/05 07:17:04;;;;;;;;;1.00;1.00;;;;;8.36;61.64;99645.91;2071536;28;46439;-56
2021/12/05 07:23:11;;;;;;;;;1.00;1.00;;;;;8.35;61.51;99646.81;2071565;28;47474;-56
2021/12/05 07:25:26;;;;;;;;;0.00;0.00;;;;;8.33;61.77;99643.31;2079476;28;47483;-55
2021/12/05 07:27:06;;;;;;;;;1.75;1.75;;;;;8.34;61.85;99640.66;2072030;28;47691;-52
2021/12/05 07:40:45;;;;;;;;;0.00;0.00;;;;;8.37;61.92;99653.78;2075662;28;46882;-59
2021/12/05 07:41:53;;;;;;;;;0.00;0.00;;;;;8.39;62.01;99656.41;2078750;28;47200;-55
2021/12/05 07:42:59;;;;;;;;;0.25;0.00;;;;;8.38;62.01;99654.66;2079045;28;47847;-58
2021/12/05 07:44:00;;;;;;;;;0.00;0.00;;;;;8.38;62.03;99663.44;2077950;28;47276;-52
2021/12/05 07:45:04;;;;;;;;;0.00;0.00;;;;;8.38;62.11;99660.81;2078177;28;47584;-57
2021/12/05 07:46:06;;;;;;;;;0.75;0.75;;;;;8.38;62.05;99652.00;2075798;28;46187;-54
2021/12/05 07:47:07;;;;;;;;;0.00;0.00;;;;;8.38;61.98;99647.59;2077498;28;47514;-52
2021/12/05 07:48:18;;;;;;;;;0.00;0.00;;;;;8.38;61.86;99655.50;2079798;28;47169;-55
2021/12/05 07:49:18;;;;;;;;;1.00;0.00;;;;;8.38;61.88;99655.50;2077832;28;47867;-62
2021/12/05 07:50:26;;;;;;;;;0.00;0.00;;;;;8.36;61.95;99648.53;2077570;28;45194;-64
2021/12/05 07:51:29;;;;;;;;;0.00;0.00;;;;;8.36;62.04;99652.06;2073043;28;47321;-62
2021/12/05 07:52:31;;;;;;;;;0.00;0.00;;;;;8.35;62.06;99650.31;2073868;28;46286;-54
2021/12/05 07:53:59;;;;;;;;;0.00;0.00;;;;;8.35;62.08;99652.97;2075038;28;46650;-54
2021/12/05 07:55:01;;;;;;;;;0.00;0.00;;;;;8.35;62.21;99652.97;2072551;28;47468;-63
2021/12/05 07:56:10;;;;;;;;;0.00;0.00;;;;;8.35;62.33;99649.47;2078581;28;46767;-60
2021/12/05 07:57:22;;;;;;;;;0.00;0.00;;;;;8.35;62.21;99646.81;2078271;28;47178;-55
2021/12/05 07:59:55;;;;;;;;;0.25;0.25;;;;;8.36;62.39;99653.84;2074731;28;47647;-53
2021/12/05 08:14:25;;;;;;;;;0.25;0.25;;;;;8.38;62.26;99655.50;2075699;28;47757;-58
2021/12/05 08:14:38;;;;;;;;;0.00;0.00;;;;;8.42;62.46;99659.81;2075502;28;46827;-55
2021/12/05 08:15:44;;;;;;;;;0.00;0.00;;;;;8.44;62.56;99660.63;2073978;28;47220;-58
2021/12/05 08:16:48;;;;;;;;;0.25;0.00;;;;;8.43;62.70;99650.97;2070537;28;47191;-54
2021/12/05 08:17:52;;;;;;;;;0.00;0.00;;;;;8.44;62.51;99654.47;2074180;28;47227;-67
2021/12/05 08:18:52;;;;;;;;;1.50;0.00;;;;;8.45;62.53;99648.28;2078051;28;46755;-57
2021/12/05 08:19:53;;;;;;;;;1.00;1.00;;;;;8.45;62.68;99656.22;2073705;28;45836;-66
2021/12/05 08:20:54;;;;;;;;;1.00;1.00;;;;;8.45;62.72;99649.16;2074878;28;47318;-64
2021/12/05 08:21:55;;;;;;;;;0.00;0.00;;;;;8.46;62.83;99648.22;2074758;28;47663;-63
2021/12/05 08:22:57;;;;;;;;;0.00;0.00;;;;;8.46;62.74;99640.28;2074020;28;47092;-66
2021/12/05 08:23:58;;;;;;;;;1.50;1.00;;;;;8.45;62.68;99650.91;2078359;28;47261;-66
2021/12/05 08:25:08;;;;;;;;;3.00;1.25;;;;;8.44;62.79;99650.06;2074246;28;47790;-65